Time;durP1;ratioP1;P1;durP2;ratioP2;P2;SDS_P1;SDS_P2;PMS_P1;PMS_P2;Temp;Humidity;BMP_temperature;BMP_pressure;BME280_temperature;BME280_humidity;BME280_pressure;Samples;Min_cycle;Max_cycle;Signal;HPM_P1;HPM_P2
2023/03/10 00:00:43;;;;;;;22.40;14.00;;;;;;;;;;5091929;28;20044;-79
2023/03/10 00:03:09;;;;;;;18.08;12.00;;;;;;;;;;5092046;28;20052;-79
2023/03/10 00:05:36;;;;;;;20.17;12.00;;;;;;;;;;5071796;28;20051;-79
2023/03/10 00:08:02;;;;;;;22.27;14.23;;;;;;;;;;5081529;28;20048;-80
2023/03/10 00:10:28;;;;;;;23.98;15.25;;;;;;;;;;5086390;28;20185;-79
2023/03/10 00:12:54;;;;;;;24.20;15.88;;;;;;;;;;5081214;28;20045;-79
2023/03/10 00:15:22;;;;;;;23.35;14.90;;;;;;;;;;5077841;28;20516;-79
2023/03/10 00:17:54;;;;;;;21.27;14.07;;;;;;;;;;5082276;28;20081;-79
2023/03/10 00:20:20;;;;;;;22.00;15.02;;;;;;;;;;5076467;28;20681;-80
2023/03/10 00:22:46;;;;;;;24.15;16.45;;;;;;;;;;5075660;28;20036;-79
2023/03/10 00:25:14;;;;;;;23.42;15.68;;;;;;;;;;5089112;28;20486;-80
2023/03/10 00:27:40;;;;;;;25.35;17.25;;;;;;;;;;5075483;28;20178;-80
2023/03/10 00:30:07;;;;;;;23.35;15.27;;;;;;;;;;5075789;28;20452;-80
2023/03/10 00:32:34;;;;;;;25.75;17.52;;;;;;;;;;5074442;28;20396;-79
2023/03/10 00:35:00;;;;;;;24.55;17.10;;;;;;;;;;5088848;28;20482;-80
2023/03/10 00:37:26;;;;;;;25.63;17.52;;;;;;;;;;5083555;28;20114;-80
2023/03/10 00:39:54;;;;;;;20.15;11.38;;;;;;;;;;5075233;28;20059;-79
2023/03/10 00:42:20;;;;;;;23.85;15.55;;;;;;;;;;5073788;28;20036;-80
2023/03/10 00:44:47;;;;;;;24.13;16.60;;;;;;;;;;5081256;28;20032;-79
2023/03/10 00:47:13;;;;;;;22.95;15.50;;;;;;;;;;5093798;28;20079;-80
2023/03/10 00:49:39;;;;;;;20.33;13.45;;;;;;;;;;5098123;28;20032;-80
2023/03/10 00:52:05;;;;;;;23.77;16.63;;;;;;;;;;5098510;28;20052;-80
2023/03/10 00:54:32;;;;;;;25.50;17.02;;;;;;;;;;5095320;28;20044;-80
2023/03/10 00:56:58;;;;;;;24.63;16.42;;;;;;;;;;5082680;28;20072;-80
2023/03/10 00:59:24;;;;;;;23.35;15.75;;;;;;;;;;5077720;28;20045;-80
2023/03/10 01:01:50;;;;;;;21.02;14.90;;;;;;;;;;5081809;28;20077;-79
2023/03/10 01:04:18;;;;;;;26.13;17.02;;;;;;;;;;5077895;28;20043;-79
2023/03/10 01:06:46;;;;;;;25.13;16.55;;;;;;;;;;5077872;28;20052;-80
2023/03/10 01:09:12;;;;;;;22.52;14.25;;;;;;;;;;5087714;28;20550;-80
2023/03/10 01:11:39;;;;;;;23.30;14.15;;;;;;;;;;5078768;28;20487;-80
2023/03/10 01:14:06;;;;;;;21.33;13.43;;;;;;;;;;5083401;28;20044;-80
2023/03/10 01:16:32;;;;;;;23.60;15.70;;;;;;;;;;5089048;28;20049;-80
2023/03/10 01:18:59;;;;;;;23.58;15.68;;;;;;;;;;5091207;28;20040;-79
2023/03/10 01:21:27;;;;;;;20.80;13.57;;;;;;;;;;5097380;28;20036;-80
2023/03/10 01:23:54;;;;;;;23.55;15.35;;;;;;;;;;5076759;28;20510;-80
2023/03/10 01:26:20;;;;;;;22.58;14.60;;;;;;;;;;5069623;28;20052;-80
2023/03/10 01:28:46;;;;;;;24.05;15.50;;;;;;;;;;5077274;28;20048;-80
2023/03/10 01:31:13;;;;;;;20.48;13.13;;;;;;;;;;5092409;28;20055;-80
2023/03/10 01:33:42;;;;;;;20.33;12.80;;;;;;;;;;5087940;28;20051;-80
2023/03/10 01:36:09;;;;;;;18.70;11.18;;;;;;;;;;5089995;28;20131;-80
2023/03/10 01:38:35;;;;;;;19.08;11.57;;;;;;;;;;5077074;28;20052;-80
2023/03/10 01:41:01;;;;;;;20.45;13.38;;;;;;;;;;5077216;28;20044;-80
2023/03/10 01:43:32;;;;;;;21.63;13.40;;;;;;;;;;5076063;28;20504;-79
2023/03/10 01:46:01;;;;;;;18.92;13.35;;;;;;;;;;5086222;28;20579;-80
2023/03/10 01:48:33;;;;;;;20.77;14.75;;;;;;;;;;5085806;28;20102;-80
2023/03/10 01:50:59;;;;;;;20.40;13.45;;;;;;;;;;5097300;28;20047;-80
2023/03/10 01:53:27;;;;;;;17.40;10.40;;;;;;;;;;5083974;28;20044;-80
2023/03/10 01:55:56;;;;;;;20.65;13.23;;;;;;;;;;5096321;28;20044;-80
2023/03/10 01:58:24;;;;;;;18.80;12.20;;;;;;;;;;5096956;28;20055;-80
2023/03/10 02:00:52;;;;;;;19.70;12.68;;;;;;;;;;5096558;28;20047;-80
2023/03/10 02:03:19;;;;;;;19.33;11.13;;;;;;;;;;5083088;28;20048;-80
2023/03/10 02:05:48;;;;;;;19.63;12.18;;;;;;;;;;5097048;28;20043;-80
2023/03/10 02:08:15;;;;;;;18.58;12.88;;;;;;;;;;5082142;28;20052;-80
2023/03/10 02:10:41;;;;;;;19.52;12.85;;;;;;;;;;5077264;28;20056;-80
2023/03/10 02:13:07;;;;;;;19.23;12.98;;;;;;;;;;5077043;28;20062;-80
2023/03/10 02:15:33;;;;;;;20.13;13.25;;;;;;;;;;5095690;28;20052;-80
2023/03/10 02:18:01;;;;;;;17.98;11.27;;;;;;;;;;5087718;28;20040;-80
2023/03/10 02:20:27;;;;;;;19.55;12.43;;;;;;;;;;5088280;28;20048;-80
2023/03/10 02:22:54;;;;;;;19.48;12.98;;;;;;;;;;5080235;28;20037;-80
2023/03/10 02:25:42;;;;;;;19.20;12.93;;;;;;;;;;5075874;28;20467;-80
2023/03/10 02:28:08;;;;;;;20.27;12.10;;;;;;;;;;5083096;28;20088;-80
2023/03/10 02:30:39;;;;;;;20.60;13.57;;;;;;;;;;5082417;28;20055;-80
2023/03/10 02:33:20;;;;;;;16.33;11.02;;;;;;;;;;5076222;28;20119;-80
2023/03/10 02:35:46;;;;;;;19.73;13.48;;;;;;;;;;5075885;28;20040;-80
2023/03/10 02:38:13;;;;;;;20.10;13.30;;;;;;;;;;5085874;28;20048;-80
2023/03/10 02:40:40;;;;;;;20.42;11.95;;;;;;;;;;5074052;28;20044;-80
2023/03/10 02:43:20;;;;;;;25.25;17.45;;;;;;;;;;5074094;28;20037;-80
2023/03/10 02:45:47;;;;;;;23.83;15.65;;;;;;;;;;5075135;28;20060;-81
2023/03/10 02:48:15;;;;;;;23.10;15.32;;;;;;;;;;5087069;28;20072;-80
2023/03/10 02:50:43;;;;;;;28.42;18.02;;;;;;;;;;5089426;28;20089;-80
2023/03/10 02:53:09;;;;;;;26.75;16.50;;;;;;;;;;5075716;28;20051;-79
2023/03/10 02:55:35;;;;;;;25.60;16.77;;;;;;;;;;5086644;28;20040;-80
2023/03/10 02:58:02;;;;;;;24.98;15.18;;;;;;;;;;5077294;28;20123;-80
2023/03/10 03:00:29;;;;;;;26.10;17.02;;;;;;;;;;5090687;28;20448;-80
2023/03/10 03:02:55;;;;;;;28.02;18.75;;;;;;;;;;5075212;28;20041;-80
2023/03/10 03:05:21;;;;;;;29.17;17.92;;;;;;;;;;5086654;28;20410;-80
2023/03/10 03:07:47;;;;;;;28.52;18.98;;;;;;;;;;5090065;28;20074;-80
2023/03/10 03:10:13;;;;;;;31.90;20.13;;;;;;;;;;5083697;28;20044;-80
2023/03/10 03:12:39;;;;;;;26.17;15.68;;;;;;;;;;5094052;28;20048;-80
2023/03/10 03:15:05;;;;;;;31.60;18.95;;;;;;;;;;5095130;28;20414;-80
2023/03/10 03:17:32;;;;;;;28.77;18.08;;;;;;;;;;5079878;28;20048;-80
2023/03/10 03:19:58;;;;;;;29.95;19.17;;;;;;;;;;5075077;28;20045;-80
2023/03/10 03:22:24;;;;;;;30.75;18.58;;;;;;;;;;5074933;28;20101;-80
2023/03/10 03:24:50;;;;;;;31.40;21.17;;;;;;;;;;5074885;28;20510;-80
2023/03/10 03:27:16;;;;;;;23.80;12.70;;;;;;;;;;5088051;28;20047;-80
2023/03/10 03:29:42;;;;;;;29.02;18.95;;;;;;;;;;5095148;28;20048;-80
2023/03/10 03:32:08;;;;;;;28.50;17.52;;;;;;;;;;5094947;28;20052;-80
2023/03/10 03:34:34;;;;;;;29.02;16.33;;;;;;;;;;5094871;28;20115;-80
2023/03/10 03:37:00;;;;;;;25.42;15.60;;;;;;;;;;5084860;28;20505;-80
2023/03/10 03:39:26;;;;;;;28.40;17.08;;;;;;;;;;5075446;28;20120;-80
2023/03/10 03:41:56;;;;;;;24.23;15.13;;;;;;;;;;5084732;28;20047;-80
2023/03/10 03:44:22;;;;;;;26.25;16.42;;;;;;;;;;5075130;28;20084;-80
2023/03/10 03:46:48;;;;;;;24.33;16.52;;;;;;;;;;5072910;28;20043;-82
2023/03/10 03:49:14;;;;;;;27.00;16.55;;;;;;;;;;5074369;28;20049;-80
2023/03/10 03:51:40;;;;;;;25.98;17.02;;;;;;;;;;5076585;28;20044;-80
2023/03/10 03:54:06;;;;;;;22.75;14.18;;;;;;;;;;5078423;28;20044;-80
2023/03/10 03:56:32;;;;;;;21.42;13.07;;;;;;;;;;5085812;28;20040;-80
2023/03/10 03:58:58;;;;;;;22.20;14.13;;;;;;;;;;5073116;28;20057;-80
2023/03/10 04:01:24;;;;;;;22.27;13.38;;;;;;;;;;5089185;28;20044;-80
2023/03/10 04:03:50;;;;;;;22.98;15.15;;;;;;;;;;5095723;28;20517;-79
2023/03/10 04:06:16;;;;;;;20.70;12.80;;;;;;;;;;5082815;28;20079;-79
2023/03/10 04:08:42;;;;;;;18.35;11.60;;;;;;;;;;5082515;28;20037;-79
2023/03/10 04:11:08;;;;;;;19.98;12.88;;;;;;;;;;5086499;28;20040;-79
2023/03/10 04:13:36;;;;;;;18.67;11.35;;;;;;;;;;5075241;28;20102;-79
2023/03/10 04:16:02;;;;;;;22.20;13.57;;;;;;;;;;5073300;28;20036;-79
2023/03/10 04:18:28;;;;;;;20.70;13.60;;;;;;;;;;5074268;28;20473;-80
2023/03/10 04:20:54;;;;;;;21.77;14.00;;;;;;;;;;5077172;28;20045;-79
2023/03/10 04:23:22;;;;;;;21.38;13.80;;;;;;;;;;5091426;28;20074;-80
2023/03/10 04:25:48;;;;;;;22.70;14.00;;;;;;;;;;5097942;28;20083;-79
2023/03/10 04:28:14;;;;;;;22.05;13.90;;;;;;;;;;5078944;28;20071;-80
2023/03/10 04:30:44;;;;;;;20.92;13.50;;;;;;;;;;5096189;28;20478;-79
2023/03/10 04:33:10;;;;;;;23.70;14.23;;;;;;;;;;5086227;28;20511;-79
2023/03/10 04:35:41;;;;;;;19.77;13.02;;;;;;;;;;5077230;28;20053;-79
2023/03/10 04:38:07;;;;;;;20.88;13.85;;;;;;;;;;5076429;28;20409;-79
2023/03/10 04:40:33;;;;;;;19.42;12.52;;;;;;;;;;5077445;28;20041;-80
2023/03/10 04:42:59;;;;;;;20.40;13.23;;;;;;;;;;5076554;28;20094;-80
2023/03/10 04:45:26;;;;;;;17.98;11.02;;;;;;;;;;5076172;28;20495;-79
2023/03/10 04:47:52;;;;;;;19.58;12.00;;;;;;;;;;5078279;28;20399;-79
2023/03/10 04:50:18;;;;;;;18.67;12.27;;;;;;;;;;5076007;28;20052;-79
2023/03/10 04:52:45;;;;;;;20.02;11.88;;;;;;;;;;5083190;28;20052;-79
2023/03/10 04:55:12;;;;;;;17.40;10.80;;;;;;;;;;5092076;28;20040;-79
2023/03/10 04:57:38;;;;;;;20.42;13.27;;;;;;;;;;5088041;28;20445;-79
2023/03/10 05:00:06;;;;;;;18.92;11.00;;;;;;;;;;5082199;28;20051;-79
2023/03/10 05:02:33;;;;;;;18.92;10.65;;;;;;;;;;5075057;28;20041;-79
2023/03/10 05:05:00;;;;;;;18.58;12.32;;;;;;;;;;5080279;28;20040;-79
2023/03/10 05:07:26;;;;;;;20.58;12.82;;;;;;;;;;5079910;28;20051;-79
2023/03/10 05:09:52;;;;;;;19.90;12.45;;;;;;;;;;5082028;28;20070;-79
2023/03/10 05:12:18;;;;;;;21.27;12.50;;;;;;;;;;5081884;28;20470;-79
2023/03/10 05:14:44;;;;;;;19.38;12.60;;;;;;;;;;5096589;28;20044;-79
2023/03/10 05:17:11;;;;;;;18.08;10.27;;;;;;;;;;5061207;28;20056;-79
2023/03/10 05:19:37;;;;;;;23.73;13.30;;;;;;;;;;5076236;28;20037;-79
2023/03/10 05:22:04;;;;;;;22.23;13.00;;;;;;;;;;5075653;28;20052;-79
2023/03/10 05:24:30;;;;;;;18.05;9.80;;;;;;;;;;5081683;28;20091;-78
2023/03/10 05:26:56;;;;;;;20.90;13.43;;;;;;;;;;5087684;28;20090;-78
2023/03/10 05:29:22;;;;;;;24.70;14.20;;;;;;;;;;5093931;28;20488;-79
2023/03/10 05:31:48;;;;;;;24.30;13.60;;;;;;;;;;5090593;28;20105;-78
2023/03/10 05:34:14;;;;;;;23.90;13.82;;;;;;;;;;5075578;28;20157;-79
2023/03/10 05:36:41;;;;;;;25.13;14.70;;;;;;;;;;5085490;28;20119;-79
2023/03/10 05:39:08;;;;;;;26.25;15.57;;;;;;;;;;5078037;28;20167;-79
2023/03/10 05:41:35;;;;;;;27.20;16.02;;;;;;;;;;5095170;28;20044;-78
2023/03/10 05:44:01;;;;;;;23.17;14.07;;;;;;;;;;5082615;28;20044;-78
2023/03/10 05:46:28;;;;;;;27.83;15.52;;;;;;;;;;5074922;28;20052;-79
2023/03/10 05:48:54;;;;;;;22.58;12.85;;;;;;;;;;5075029;28;20090;-79
2023/03/10 05:51:20;;;;;;;24.25;14.50;;;;;;;;;;5081813;28;20052;-78
2023/03/10 05:53:47;;;;;;;25.35;14.57;;;;;;;;;;5079815;28;20047;-78
2023/03/10 05:56:14;;;;;;;23.27;12.93;;;;;;;;;;5074579;28;20499;-79
2023/03/10 05:58:41;;;;;;;24.77;14.98;;;;;;;;;;5075109;28;20045;-79
2023/03/10 06:01:07;;;;;;;26.73;14.82;;;;;;;;;;5090318;28;20048;-79
2023/03/10 06:03:33;;;;;;;23.92;13.85;;;;;;;;;;5090772;28;20044;-78
2023/03/10 06:05:59;;;;;;;31.38;18.23;;;;;;;;;;5079047;28;20061;-79
2023/03/10 06:08:29;;;;;;;33.25;19.48;;;;;;;;;;5073493;28;20123;-78
2023/03/10 06:10:55;;;;;;;34.20;20.15;;;;;;;;;;5073670;28;20041;-78
2023/03/10 06:13:21;;;;;;;33.60;20.20;;;;;;;;;;5090137;28;20085;-78
2023/03/10 06:15:49;;;;;;;34.45;19.80;;;;;;;;;;5089200;28;20488;-78
2023/03/10 06:18:18;;;;;;;34.25;20.58;;;;;;;;;;5087755;28;20099;-78
2023/03/10 06:20:45;;;;;;;36.35;22.45;;;;;;;;;;5097348;28;20046;-78
2023/03/10 06:23:11;;;;;;;33.13;18.45;;;;;;;;;;5092512;28;20041;-78
2023/03/10 06:25:37;;;;;;;36.50;21.13;;;;;;;;;;5098255;28;20028;-78
2023/03/10 06:28:04;;;;;;;41.78;25.02;;;;;;;;;;5093379;28;20075;-78
2023/03/10 06:30:30;;;;;;;38.45;22.30;;;;;;;;;;5095439;28;20051;-78
2023/03/10 06:32:56;;;;;;;32.30;19.90;;;;;;;;;;5100603;28;20504;-78
2023/03/10 06:35:22;;;;;;;33.25;19.08;;;;;;;;;;5091480;28;20067;-78
2023/03/10 06:37:48;;;;;;;37.83;21.90;;;;;;;;;;5091650;28;20463;-78
2023/03/10 06:40:14;;;;;;;36.38;22.27;;;;;;;;;;5089171;28;20502;-78
2023/03/10 06:42:40;;;;;;;36.80;22.00;;;;;;;;;;5095682;28;20036;-78
2023/03/10 06:45:07;;;;;;;37.85;21.67;;;;;;;;;;5090311;28;20052;-79
2023/03/10 06:47:33;;;;;;;35.38;21.45;;;;;;;;;;5098867;28;20093;-78
2023/03/10 06:50:00;;;;;;;37.28;22.70;;;;;;;;;;5091295;28;20058;-78
2023/03/10 06:52:26;;;;;;;41.35;24.05;;;;;;;;;;5106412;28;20044;-78
2023/03/10 06:54:52;;;;;;;33.75;20.17;;;;;;;;;;5082643;28;20048;-79
2023/03/10 06:57:18;;;;;;;33.15;19.23;;;;;;;;;;5099359;28;20460;-78
2023/03/10 06:59:45;;;;;;;37.60;22.98;;;;;;;;;;5089331;28;20052;-78
2023/03/10 07:02:12;;;;;;;37.10;21.67;;;;;;;;;;5095339;28;20054;-78
2023/03/10 07:04:38;;;;;;;37.47;24.02;;;;;;;;;;5093425;28;20093;-78
2023/03/10 07:07:05;;;;;;;36.90;22.75;;;;;;;;;;5088096;28;20060;-78
2023/03/10 07:09:31;;;;;;;33.75;20.33;;;;;;;;;;5087959;28;20045;-78
2023/03/10 07:11:57;;;;;;;34.25;22.65;;;;;;;;;;5086504;28;20048;-78
2023/03/10 07:14:23;;;;;;;33.92;20.73;;;;;;;;;;5090428;28;20041;-78
2023/03/10 07:16:49;;;;;;;31.67;19.83;;;;;;;;;;5099001;28;20042;-79
2023/03/10 07:19:15;;;;;;;32.78;20.55;;;;;;;;;;5099282;28;20055;-78
2023/03/10 07:21:41;;;;;;;33.22;20.10;;;;;;;;;;5086803;28;20056;-78
2023/03/10 07:24:07;;;;;;;31.25;19.60;;;;;;;;;;5086385;28;20055;-78
2023/03/10 07:26:33;;;;;;;30.17;19.08;;;;;;;;;;5089379;28;20109;-78
2023/03/10 07:29:01;;;;;;;26.52;17.27;;;;;;;;;;5100355;28;20040;-78
2023/03/10 07:31:27;;;;;;;30.35;18.75;;;;;;;;;;5092394;28;20052;-78
2023/03/10 07:33:53;;;;;;;29.15;18.95;;;;;;;;;;5102112;28;20547;-79
2023/03/10 07:36:21;;;;;;;29.52;19.55;;;;;;;;;;5109423;28;20086;-78
2023/03/10 07:38:47;;;;;;;23.23;14.32;;;;;;;;;;5092382;28;20071;-78
2023/03/10 07:41:15;;;;;;;28.88;17.40;;;;;;;;;;5096613;28;20048;-78
2023/03/10 07:43:41;;;;;;;30.58;18.40;;;;;;;;;;5087973;28;20060;-78
2023/03/10 07:46:08;;;;;;;26.70;17.92;;;;;;;;;;5087750;28;20066;-79
2023/03/10 07:48:35;;;;;;;28.95;18.83;;;;;;;;;;5087496;28;20048;-78
2023/03/10 07:51:01;;;;;;;27.00;18.45;;;;;;;;;;5086284;28;20044;-78
2023/03/10 07:53:27;;;;;;;26.90;18.63;;;;;;;;;;5084368;28;20051;-78
2023/03/10 07:55:54;;;;;;;29.23;20.23;;;;;;;;;;5091139;28;20063;-78
2023/03/10 07:58:20;;;;;;;23.77;15.90;;;;;;;;;;5091241;28;20052;-78
2023/03/10 08:00:46;;;;;;;26.98;17.65;;;;;;;;;;5092437;28;20049;-78
2023/03/10 08:03:12;;;;;;;24.25;17.65;;;;;;;;;;5085989;28;20075;-78
2023/03/10 08:05:39;;;;;;;23.75;16.55;;;;;;;;;;5094741;28;20045;-78
2023/03/10 08:08:05;;;;;;;21.52;14.38;;;;;;;;;;5096914;28;20056;-79
2023/03/10 08:10:31;;;;;;;23.25;15.77;;;;;;;;;;5098805;28;20045;-78
2023/03/10 08:12:58;;;;;;;21.67;14.57;;;;;;;;;;5111998;28;20048;-78
2023/03/10 08:15:25;;;;;;;19.65;12.80;;;;;;;;;;5107906;28;20025;-78
2023/03/10 08:17:51;;;;;;;15.35;9.48;;;;;;;;;;5112799;28;20526;-78
2023/03/10 08:20:17;;;;;;;23.42;14.90;;;;;;;;;;5107387;28;20044;-79
2023/03/10 08:22:43;;;;;;;21.80;15.18;;;;;;;;;;5102197;28;20051;-78
2023/03/10 08:25:11;;;;;;;24.17;16.88;;;;;;;;;;5103455;28;20095;-78
2023/03/10 08:27:37;;;;;;;22.42;15.50;;;;;;;;;;5108510;28;20037;-78
2023/03/10 08:30:03;;;;;;;21.05;15.30;;;;;;;;;;5112007;28;20020;-78
2023/03/10 08:32:29;;;;;;;21.77;15.38;;;;;;;;;;5100278;28;20021;-78
2023/03/10 08:34:55;;;;;;;25.05;16.83;;;;;;;;;;5110260;28;20056;-78
2023/03/10 08:37:22;;;;;;;23.98;16.80;;;;;;;;;;5099074;28;20044;-78
2023/03/10 08:39:50;;;;;;;23.98;17.13;;;;;;;;;;5118551;28;20032;-78
2023/03/10 08:42:16;;;;;;;24.33;17.40;;;;;;;;;;5109021;28;20036;-78
2023/03/10 08:44:42;;;;;;;27.85;19.10;;;;;;;;;;5106365;28;20036;-78
2023/03/10 08:47:08;;;;;;;16.33;10.60;;;;;;;;;;5116747;28;20212;-78
2023/03/10 08:49:35;;;;;;;23.88;17.95;;;;;;;;;;5109707;28;20044;-79
2023/03/10 08:52:01;;;;;;;22.92;14.15;;;;;;;;;;5094152;28;20048;-78
2023/03/10 08:54:27;;;;;;;22.20;14.43;;;;;;;;;;5094177;28;20036;-78
2023/03/10 08:56:53;;;;;;;22.48;16.00;;;;;;;;;;5091336;28;20063;-78
2023/03/10 08:59:20;;;;;;;23.50;16.63;;;;;;;;;;5092709;28;20052;-79
2023/03/10 09:01:46;;;;;;;27.88;19.10;;;;;;;;;;5108464;28;20070;-78
2023/03/10 09:04:12;;;;;;;24.27;17.30;;;;;;;;;;5096687;28;20096;-78
2023/03/10 09:06:38;;;;;;;22.08;16.10;;;;;;;;;;5094477;28;20057;-78
2023/03/10 09:09:05;;;;;;;27.10;18.15;;;;;;;;;;5099194;28;20052;-80
2023/03/10 09:11:33;;;;;;;24.08;17.30;;;;;;;;;;5099655;28;20032;-79
2023/03/10 09:13:59;;;;;;;21.33;15.32;;;;;;;;;;5100911;28;20085;-79
2023/03/10 09:16:27;;;;;;;22.88;16.05;;;;;;;;;;5114589;28;20158;-79
2023/03/10 09:18:53;;;;;;;25.98;16.88;;;;;;;;;;5098559;28;20036;-79
2023/03/10 09:21:20;;;;;;;21.13;15.00;;;;;;;;;;5098919;28;20037;-78
2023/03/10 09:23:46;;;;;;;21.77;16.45;;;;;;;;;;5098643;28;20032;-79
2023/03/10 09:26:12;;;;;;;21.90;16.25;;;;;;;;;;5073781;28;20047;-80
2023/03/10 09:28:39;;;;;;;23.27;15.10;;;;;;;;;;5075743;28;20078;-80
2023/03/10 09:31:05;;;;;;;22.55;16.65;;;;;;;;;;5085432;28;20047;-80
2023/03/10 09:33:32;;;;;;;23.33;17.38;;;;;;;;;;5088468;28;20052;-80
2023/03/10 09:35:58;;;;;;;22.88;16.27;;;;;;;;;;5074255;28;20055;-79
2023/03/10 09:38:25;;;;;;;22.55;16.02;;;;;;;;;;5081744;28;20063;-80
2023/03/10 09:41:09;;;;;;;19.77;12.93;;;;;;;;;;5084176;28;20044;-79
2023/03/10 09:43:39;;;;;;;23.13;16.38;;;;;;;;;;5076008;28;20508;-80
2023/03/10 09:46:14;;;;;;;20.42;12.70;;;;;;;;;;5074607;28;20049;-80
2023/03/10 09:48:46;;;;;;;21.88;16.10;;;;;;;;;;5073054;28;20052;-80
2023/03/10 09:51:23;;;;;;;21.05;14.88;;;;;;;;;;5090442;28;20083;-79
2023/03/10 09:53:49;;;;;;;23.48;16.83;;;;;;;;;;5093586;28;20124;-80
2023/03/10 09:56:17;;;;;;;24.83;17.98;;;;;;;;;;5087436;28;20052;-80
2023/03/10 09:58:45;;;;;;;23.20;15.25;;;;;;;;;;5085729;28;20059;-80
2023/03/10 10:01:18;;;;;;;27.85;19.20;;;;;;;;;;5086842;28;20145;-80
2023/03/10 10:03:56;;;;;;;23.33;16.30;;;;;;;;;;5100617;28;20048;-79
2023/03/10 10:06:26;;;;;;;23.98;17.13;;;;;;;;;;5090020;28;20051;-79
2023/03/10 10:08:58;;;;;;;22.90;15.60;;;;;;;;;;5107484;28;20057;-80
2023/03/10 10:11:24;;;;;;;;;;;;;;;;;;5097604;28;20051;-80
2023/03/10 10:13:51;;;;;;;21.27;13.40;;;;;;;;;;5097380;28;19920;-80
2023/03/10 10:16:28;;;;;;;23.75;16.55;;;;;;;;;;5107426;28;20048;-80
2023/03/10 10:19:02;;;;;;;22.45;15.80;;;;;;;;;;5082196;28;20044;-80
2023/03/10 10:21:35;;;;;;;24.42;18.13;;;;;;;;;;5088673;28;20096;-80
2023/03/10 10:24:01;;;;;;;24.85;16.58;;;;;;;;;;5089309;28;20140;-79
2023/03/10 10:26:28;;;;;;;21.55;13.73;;;;;;;;;;5088727;28;20055;-80
2023/03/10 10:28:58;;;;;;;24.60;17.00;;;;;;;;;;5092663;28;20040;-80
2023/03/10 10:31:29;;;;;;;24.42;17.27;;;;;;;;;;5103119;28;20044;-79
2023/03/10 10:34:03;;;;;;;22.92;16.92;;;;;;;;;;5104059;28;20044;-80
2023/03/10 10:36:31;;;;;;;25.45;18.23;;;;;;;;;;5099458;28;20096;-79
2023/03/10 10:38:58;;;;;;;22.00;15.82;;;;;;;;;;5097837;28;20043;-80
2023/03/10 10:41:25;;;;;;;25.35;17.58;;;;;;;;;;5108040;28;20067;-80
2023/03/10 10:43:52;;;;;;;23.95;16.83;;;;;;;;;;5103308;28;20083;-80
2023/03/10 10:46:24;;;;;;;23.73;17.27;;;;;;;;;;5104561;28;20383;-80
2023/03/10 10:48:59;;;;;;;24.30;16.98;;;;;;;;;;5092129;28;20038;-79
2023/03/10 10:51:31;;;;;;;23.27;17.13;;;;;;;;;;5094591;28;20036;-79
2023/03/10 10:53:58;;;;;;;21.30;13.98;;;;;;;;;;5108556;28;20103;-80
2023/03/10 10:56:24;;;;;;;23.95;16.77;;;;;;;;;;5090156;28;20060;-80
2023/03/10 10:59:10;;;;;;;19.33;13.13;;;;;;;;;;5092392;28;20072;-80
2023/03/10 11:02:09;;;;;;;23.98;16.90;;;;;;;;;;5092482;28;20053;-81
2023/03/10 11:04:45;;;;;;;21.40;14.82;;;;;;;;;;5096398;28;20054;-81
2023/03/10 11:07:18;;;;;;;22.33;14.68;;;;;;;;;;5100491;28;20066;-80
2023/03/10 11:09:44;;;;;;;24.17;17.42;;;;;;;;;;5095326;28;20131;-80
2023/03/10 11:12:20;;;;;;;23.15;15.82;;;;;;;;;;5086480;28;20119;-79
2023/03/10 11:14:51;;;;;;;20.88;14.38;;;;;;;;;;5096623;28;20044;-79
2023/03/10 11:17:35;;;;;;;22.30;15.75;;;;;;;;;;5092192;28;20040;-80
2023/03/10 11:20:13;;;;;;;21.48;14.32;;;;;;;;;;5087912;28;20048;-79
2023/03/10 11:22:48;;;;;;;22.58;15.70;;;;;;;;;;5087419;28;20059;-79
2023/03/10 11:25:25;;;;;;;23.23;15.68;;;;;;;;;;5102946;28;20043;-79
2023/03/10 11:28:04;;;;;;;26.02;16.63;;;;;;;;;;5097581;28;20043;-79
2023/03/10 11:30:31;;;;;;;24.48;16.10;;;;;;;;;;5091794;28;20036;-79
2023/03/10 11:33:03;;;;;;;25.48;16.95;;;;;;;;;;5092710;28;20045;-79
2023/03/10 11:35:44;;;;;;;27.50;20.40;;;;;;;;;;5090280;28;20055;-79
2023/03/10 11:38:30;;;;;;;25.98;17.10;;;;;;;;;;5088094;28;20067;-80
2023/03/10 11:41:19;;;;;;;26.25;18.73;;;;;;;;;;5087887;28;20057;-80
2023/03/10 11:43:49;;;;;;;26.52;18.33;;;;;;;;;;5098965;28;20053;-79
2023/03/10 11:46:21;;;;;;;24.10;16.98;;;;;;;;;;5096404;28;20044;-80
2023/03/10 11:49:00;;;;;;;21.60;14.60;;;;;;;;;;5091718;28;20100;-80
2023/03/10 11:51:26;;;;;;;24.35;16.45;;;;;;;;;;5086771;28;20123;-79
2023/03/10 11:54:01;;;;;;;28.75;19.95;;;;;;;;;;5087089;28;20082;-80
2023/03/10 11:56:27;;;;;;;24.75;16.27;;;;;;;;;;5108552;28;20040;-80
2023/03/10 11:58:59;;;;;;;25.92;16.67;;;;;;;;;;5102130;28;20048;-79
2023/03/10 12:01:31;;;;;;;28.42;17.35;;;;;;;;;;5102529;28;20040;-79
2023/03/10 12:04:16;;;;;;;21.83;14.65;;;;;;;;;;5101460;28;20040;-79
2023/03/10 12:06:52;;;;;;;25.13;15.18;;;;;;;;;;5086298;28;20053;-79
2023/03/10 12:09:28;;;;;;;26.75;19.42;;;;;;;;;;5092358;28;20052;-79
2023/03/10 12:11:54;;;;;;;27.17;17.02;;;;;;;;;;5102083;28;20094;-80
2023/03/10 12:14:23;;;;;;;21.92;13.63;;;;;;;;;;5095925;28;20044;-79
2023/03/10 12:16:49;;;;;;;25.90;16.42;;;;;;;;;;5089543;28;21139;-79
2023/03/10 12:19:15;;;;;;;26.00;16.77;;;;;;;;;;5085636;28;20045;-80
2023/03/10 12:21:46;;;;;;;25.35;16.50;;;;;;;;;;5093238;28;20186;-79
2023/03/10 12:24:31;;;;;;;24.67;16.17;;;;;;;;;;5087516;28;20044;-79
2023/03/10 12:26:58;;;;;;;28.17;19.42;;;;;;;;;;5087883;28;20507;-79
2023/03/10 12:29:33;;;;;;;27.85;19.38;;;;;;;;;;5096665;28;20078;-79
2023/03/10 12:31:59;;;;;;;25.67;16.38;;;;;;;;;;5096476;28;20055;-79
2023/03/10 12:34:31;;;;;;;21.30;13.23;;;;;;;;;;5098795;28;20048;-79
2023/03/10 12:37:05;;;;;;;27.20;18.38;;;;;;;;;;5107479;28;20055;-79
2023/03/10 12:39:36;;;;;;;26.05;17.45;;;;;;;;;;5097943;28;20073;-79
2023/03/10 12:42:02;;;;;;;;;;;;;;;;;;5096275;28;20097;-79
2023/03/10 12:44:28;;;;;;;22.48;12.43;;;;;;;;;;5102159;28;19974;-79
2023/03/10 12:47:14;;;;;;;24.83;15.35;;;;;;;;;;5089018;28;20040;-79
2023/03/10 12:49:40;;;;;;;20.30;12.18;;;;;;;;;;5092176;28;20051;-79
2023/03/10 12:52:06;;;;;;;23.50;14.95;;;;;;;;;;5097901;28;20191;-79
2023/03/10 12:54:39;;;;;;;27.08;18.55;;;;;;;;;;5102294;28;20053;-79
2023/03/10 12:57:31;;;;;;;30.70;19.90;;;;;;;;;;5101042;28;20047;-78
2023/03/10 13:00:05;;;;;;;32.45;20.30;;;;;;;;;;5070244;28;20051;-78
2023/03/10 13:02:48;;;;;;;29.08;18.42;;;;;;;;;;5062215;28;20051;-79
2023/03/10 13:05:19;;;;;;;27.73;18.65;;;;;;;;;;5082899;28;20112;-79
2023/03/10 13:07:51;;;;;;;25.63;15.75;;;;;;;;;;5065408;28;20044;-78
2023/03/10 13:10:19;;;;;;;30.23;20.30;;;;;;;;;;5066882;28;20083;-78
2023/03/10 13:12:50;;;;;;;25.42;15.73;;;;;;;;;;5065656;28;20052;-77
2023/03/10 13:15:23;;;;;;;27.02;18.63;;;;;;;;;;5072859;28;20085;-75
2023/03/10 13:17:49;;;;;;;24.88;16.75;;;;;;;;;;5071703;28;20071;-76
2023/03/10 13:20:18;;;;;;;25.17;15.00;;;;;;;;;;5072472;28;20053;-78
2023/03/10 13:22:54;;;;;;;22.48;13.40;;;;;;;;;;5079467;28;20048;-78
2023/03/10 13:25:21;;;;;;;28.40;17.85;;;;;;;;;;5082051;28;20049;-78
2023/03/10 13:27:47;;;;;;;25.50;15.00;;;;;;;;;;5081063;28;20041;-78
2023/03/10 13:30:13;;;;;;;30.88;19.35;;;;;;;;;;5082498;28;20133;-78
2023/03/10 13:32:39;;;;;;;30.05;19.30;;;;;;;;;;5056335;28;20551;-78
2023/03/10 13:35:24;;;;;;;18.92;11.65;;;;;;;;;;5070653;28;20048;-78
2023/03/10 13:38:09;;;;;;;27.05;17.40;;;;;;;;;;5078111;28;20139;-78
2023/03/10 13:40:35;;;;;;;28.45;18.02;;;;;;;;;;5083726;28;20040;-77
2023/03/10 13:43:21;;;;;;;25.63;16.50;;;;;;;;;;5095896;28;20050;-78
2023/03/10 13:45:53;;;;;;;18.77;11.05;;;;;;;;;;5102805;28;20040;-79
2023/03/10 13:48:21;;;;;;;22.90;14.27;;;;;;;;;;5103933;28;20050;-79
2023/03/10 13:50:48;;;;;;;21.63;14.70;;;;;;;;;;5086466;28;20132;-79
2023/03/10 13:53:24;;;;;;;30.25;20.27;;;;;;;;;;5084326;28;20420;-79
2023/03/10 13:55:51;;;;;;;24.50;16.40;;;;;;;;;;5085036;28;20041;-79
2023/03/10 13:58:17;;;;;;;18.60;12.10;;;;;;;;;;5091908;28;20491;-79
2023/03/10 14:00:49;;;;;;;26.60;17.30;;;;;;;;;;5102695;28;20063;-79
2023/03/10 14:03:16;;;;;;;22.20;11.68;;;;;;;;;;5098270;28;20071;-79
2023/03/10 14:05:48;;;;;;;23.13;14.80;;;;;;;;;;5084324;28;20037;-79
2023/03/10 14:08:17;;;;;;;27.33;17.65;;;;;;;;;;5088570;28;20060;-79
2023/03/10 14:10:43;;;;;;;23.23;15.05;;;;;;;;;;5089916;28;20044;-79
2023/03/10 14:13:29;;;;;;;22.77;15.10;;;;;;;;;;5083508;28;20102;-77
2023/03/10 14:15:55;;;;;;;24.15;14.90;;;;;;;;;;5102125;28;20108;-79
2023/03/10 14:18:22;;;;;;;19.42;12.93;;;;;;;;;;5095467;28;20453;-79
2023/03/10 14:20:48;;;;;;;21.73;15.43;;;;;;;;;;5081078;28;20052;-79
2023/03/10 14:23:17;;;;;;;24.63;15.73;;;;;;;;;;5079982;28;20055;-79
2023/03/10 14:25:44;;;;;;;23.73;15.93;;;;;;;;;;5096337;28;20122;-79